sensor_id;sensor_type;location;lat;lon;timestamp;P1;durP1;ratioP1;P2;durP2;ratioP2
2710;SDS011;20721;47.402;8.550;2023-07-16T00:00:00;1.12;;;1.12;;
2710;SDS011;20721;47.402;8.550;2023-07-16T00:02:00;1.28;;;1.28;;
2710;SDS011;20721;47.402;8.550;2023-07-16T00:05:00;1.20;;;1.20;;
2710;SDS011;20721;47.402;8.550;2023-07-16T00:07:00;0.99;;;0.99;;
2710;SDS011;20721;47.402;8.550;2023-07-16T00:09:00;1.42;;;1.42;;
2710;SDS011;20721;47.402;8.550;2023-07-16T00:12:00;1.63;;;1.63;;
2710;SDS011;20721;47.402;8.550;2023-07-16T00:14:00;1.24;;;1.24;;
2710;SDS011;20721;47.402;8.550;2023-07-16T00:17:00;1.21;;;1.20;;
2710;SDS011;20721;47.402;8.550;2023-07-16T00:19:00;1.28;;;1.27;;
2710;SDS011;20721;47.402;8.550;2023-07-16T00:21:00;1.55;;;1.53;;
2710;SDS011;20721;47.402;8.550;2023-07-16T00:23:01;1.34;;;1.34;;
2710;SDS011;20721;47.402;8.550;2023-07-16T00:25:00;1.23;;;1.23;;
2710;SDS011;20721;47.402;8.550;2023-07-16T00:27:00;1.15;;;1.15;;
2710;SDS011;20721;47.402;8.550;2023-07-16T00:29:00;1.31;;;1.30;;
2710;SDS011;20721;47.402;8.550;2023-07-16T00:31:00;1.36;;;1.36;;
2710;SDS011;20721;47.402;8.550;2023-07-16T00:34:00;1.19;;;1.19;;
2710;SDS011;20721;47.402;8.550;2023-07-16T00:37:00;1.01;;;1.01;;
2710;SDS011;20721;47.402;8.550;2023-07-16T00:39:00;1.41;;;1.41;;
2710;SDS011;20721;47.402;8.550;2023-07-16T00:42:00;1.31;;;1.31;;
2710;SDS011;20721;47.402;8.550;2023-07-16T00:44:00;1.12;;;1.12;;
2710;SDS011;20721;47.402;8.550;2023-07-16T00:46:01;1.26;;;1.25;;
2710;SDS011;20721;47.402;8.550;2023-07-16T00:48:01;1.23;;;1.22;;
2710;SDS011;20721;47.402;8.550;2023-07-16T00:50:01;1.42;;;1.41;;
2710;SDS011;20721;47.402;8.550;2023-07-16T00:52:02;1.34;;;1.33;;
2710;SDS011;20721;47.402;8.550;2023-07-16T00:54:00;1.66;;;1.66;;
2710;SDS011;20721;47.402;8.550;2023-07-16T00:56:01;1.47;;;1.47;;
2710;SDS011;20721;47.402;8.550;2023-07-16T00:58:02;1.52;;;1.52;;
2710;SDS011;20721;47.402;8.550;2023-07-16T01:00:00;1.41;;;1.41;;
2710;SDS011;20721;47.402;8.550;2023-07-16T01:02:00;1.32;;;1.32;;
2710;SDS011;20721;47.402;8.550;2023-07-16T01:04:00;1.63;;;1.62;;
2710;SDS011;20721;47.402;8.550;2023-07-16T01:06:10;1.55;;;1.55;;
2710;SDS011;20721;47.402;8.550;2023-07-16T01:08:07;1.58;;;1.58;;
2710;SDS011;20721;47.402;8.550;2023-07-16T01:10:01;1.38;;;1.38;;
2710;SDS011;20721;47.402;8.550;2023-07-16T01:13:02;1.44;;;1.44;;
2710;SDS011;20721;47.402;8.550;2023-07-16T01:15:01;1.22;;;1.22;;
2710;SDS011;20721;47.402;8.550;2023-07-16T01:17:04;1.11;;;1.11;;
2710;SDS011;20721;47.402;8.550;2023-07-16T01:19:01;1.44;;;1.44;;
2710;SDS011;20721;47.402;8.550;2023-07-16T01:21:01;1.39;;;1.39;;
2710;SDS011;20721;47.402;8.550;2023-07-16T01:27:36;1.18;;;1.18;;
2710;SDS011;20721;47.402;8.550;2023-07-16T01:31:01;1.69;;;1.69;;
2710;SDS011;20721;47.402;8.550;2023-07-16T01:33:01;1.28;;;1.28;;
2710;SDS011;20721;47.402;8.550;2023-07-16T01:35:03;1.27;;;1.27;;
2710;SDS011;20721;47.402;8.550;2023-07-16T01:37:01;1.80;;;1.80;;
2710;SDS011;20721;47.402;8.550;2023-07-16T01:41:01;1.38;;;1.38;;
2710;SDS011;20721;47.402;8.550;2023-07-16T01:44:01;1.07;;;1.07;;
2710;SDS011;20721;47.402;8.550;2023-07-16T01:46:01;1.44;;;1.44;;
2710;SDS011;20721;47.402;8.550;2023-07-16T01:48:38;1.55;;;1.55;;
2710;SDS011;20721;47.402;8.550;2023-07-16T01:50:01;1.24;;;1.24;;
2710;SDS011;20721;47.402;8.550;2023-07-16T01:53:01;1.52;;;1.52;;
2710;SDS011;20721;47.402;8.550;2023-07-16T01:55:01;1.62;;;1.62;;
2710;SDS011;20721;47.402;8.550;2023-07-16T01:57:01;1.41;;;1.41;;
2710;SDS011;20721;47.402;8.550;2023-07-16T01:59:00;1.29;;;1.29;;
2710;SDS011;20721;47.402;8.550;2023-07-16T02:01:01;1.58;;;1.58;;
2710;SDS011;20721;47.402;8.550;2023-07-16T02:03:01;1.30;;;1.30;;
2710;SDS011;20721;47.402;8.550;2023-07-16T02:05:01;1.29;;;1.29;;
2710;SDS011;20721;47.402;8.550;2023-07-16T02:08:01;1.48;;;1.47;;
2710;SDS011;20721;47.402;8.550;2023-07-16T02:10:01;1.69;;;1.68;;
2710;SDS011;20721;47.402;8.550;2023-07-16T02:12:01;2.25;;;2.23;;
2710;SDS011;20721;47.402;8.550;2023-07-16T02:14:01;1.57;;;1.57;;
2710;SDS011;20721;47.402;8.550;2023-07-16T02:16:01;1.71;;;1.71;;
2710;SDS011;20721;47.402;8.550;2023-07-16T02:19:01;1.96;;;1.96;;
2710;SDS011;20721;47.402;8.550;2023-07-16T02:21:01;1.61;;;1.61;;
2710;SDS011;20721;47.402;8.550;2023-07-16T02:23:01;1.46;;;1.46;;
2710;SDS011;20721;47.402;8.550;2023-07-16T02:25:01;1.67;;;1.67;;
2710;SDS011;20721;47.402;8.550;2023-07-16T02:27:01;1.54;;;1.53;;
2710;SDS011;20721;47.402;8.550;2023-07-16T02:30:01;1.84;;;1.83;;
2710;SDS011;20721;47.402;8.550;2023-07-16T02:33:01;1.36;;;1.36;;
2710;SDS011;20721;47.402;8.550;2023-07-16T02:36:02;1.19;;;1.18;;
2710;SDS011;20721;47.402;8.550;2023-07-16T02:38:01;1.71;;;1.70;;
2710;SDS011;20721;47.402;8.550;2023-07-16T02:40:01;1.65;;;1.64;;
2710;SDS011;20721;47.402;8.550;2023-07-16T02:42:01;1.65;;;1.65;;
2710;SDS011;20721;47.402;8.550;2023-07-16T02:44:08;1.60;;;1.59;;
2710;SDS011;20721;47.402;8.550;2023-07-16T02:46:01;1.98;;;1.96;;
2710;SDS011;20721;47.402;8.550;2023-07-16T02:48:01;1.70;;;1.69;;
2710;SDS011;20721;47.402;8.550;2023-07-16T02:50:01;1.71;;;1.71;;
2710;SDS011;20721;47.402;8.550;2023-07-16T02:52:01;1.91;;;1.91;;
2710;SDS011;20721;47.402;8.550;2023-07-16T02:54:01;1.36;;;1.36;;
2710;SDS011;20721;47.402;8.550;2023-07-16T02:56:01;1.92;;;1.91;;
2710;SDS011;20721;47.402;8.550;2023-07-16T02:58:01;1.77;;;1.77;;
2710;SDS011;20721;47.402;8.550;2023-07-16T03:00:01;1.53;;;1.53;;
2710;SDS011;20721;47.402;8.550;2023-07-16T03:02:01;1.71;;;1.71;;
2710;SDS011;20721;47.402;8.550;2023-07-16T03:04:01;2.04;;;2.02;;
2710;SDS011;20721;47.402;8.550;2023-07-16T03:06:01;1.95;;;1.94;;
2710;SDS011;20721;47.402;8.550;2023-07-16T03:08:01;2.11;;;2.09;;
2710;SDS011;20721;47.402;8.550;2023-07-16T03:10:01;1.78;;;1.77;;
2710;SDS011;20721;47.402;8.550;2023-07-16T03:12:01;1.55;;;1.53;;
2710;SDS011;20721;47.402;8.550;2023-07-16T03:14:01;1.63;;;1.63;;
2710;SDS011;20721;47.402;8.550;2023-07-16T03:16:01;1.48;;;1.48;;
2710;SDS011;20721;47.402;8.550;2023-07-16T03:18:01;2.02;;;2.02;;
2710;SDS011;20721;47.402;8.550;2023-07-16T03:20:01;1.72;;;1.72;;
2710;SDS011;20721;47.402;8.550;2023-07-16T03:22:01;1.76;;;1.76;;
2710;SDS011;20721;47.402;8.550;2023-07-16T03:24:01;1.91;;;1.91;;
2710;SDS011;20721;47.402;8.550;2023-07-16T03:26:01;1.61;;;1.61;;
2710;SDS011;20721;47.402;8.550;2023-07-16T03:28:01;1.70;;;1.70;;
2710;SDS011;20721;47.402;8.550;2023-07-16T03:30:01;2.14;;;2.13;;
2710;SDS011;20721;47.402;8.550;2023-07-16T03:32:01;1.91;;;1.88;;
2710;SDS011;20721;47.402;8.550;2023-07-16T03:34:01;1.83;;;1.81;;
2710;SDS011;20721;47.402;8.550;2023-07-16T03:36:01;1.96;;;1.95;;
2710;SDS011;20721;47.402;8.550;2023-07-16T03:38:01;1.85;;;1.85;;
2710;SDS011;20721;47.402;8.550;2023-07-16T03:40:17;1.89;;;1.88;;
2710;SDS011;20721;47.402;8.550;2023-07-16T03:42:01;1.74;;;1.74;;
2710;SDS011;20721;47.402;8.550;2023-07-16T03:44:01;1.80;;;1.80;;
2710;SDS011;20721;47.402;8.550;2023-07-16T03:46:01;1.89;;;1.89;;
2710;SDS011;20721;47.402;8.550;2023-07-16T03:48:01;1.68;;;1.68;;
2710;SDS011;20721;47.402;8.550;2023-07-16T03:50:01;1.74;;;1.74;;
2710;SDS011;20721;47.402;8.550;2023-07-16T03:52:01;1.54;;;1.54;;
2710;SDS011;20721;47.402;8.550;2023-07-16T03:54:01;1.41;;;1.41;;
2710;SDS011;20721;47.402;8.550;2023-07-16T03:56:01;1.54;;;1.54;;
2710;SDS011;20721;47.402;8.550;2023-07-16T03:58:01;1.44;;;1.44;;
2710;SDS011;20721;47.402;8.550;2023-07-16T04:00:03;1.55;;;1.55;;
2710;SDS011;20721;47.402;8.550;2023-07-16T04:02:01;1.74;;;1.73;;
2710;SDS011;20721;47.402;8.550;2023-07-16T04:04:01;1.38;;;1.38;;
2710;SDS011;20721;47.402;8.550;2023-07-16T04:06:02;1.86;;;1.86;;
2710;SDS011;20721;47.402;8.550;2023-07-16T04:08:01;1.76;;;1.76;;
2710;SDS011;20721;47.402;8.550;2023-07-16T04:10:01;1.76;;;1.76;;
2710;SDS011;20721;47.402;8.550;2023-07-16T04:12:01;1.91;;;1.91;;
2710;SDS011;20721;47.402;8.550;2023-07-16T04:14:01;2.01;;;2.01;;
2710;SDS011;20721;47.402;8.550;2023-07-16T04:16:03;1.91;;;1.91;;
2710;SDS011;20721;47.402;8.550;2023-07-16T04:18:01;1.63;;;1.63;;
2710;SDS011;20721;47.402;8.550;2023-07-16T04:20:01;1.57;;;1.57;;
2710;SDS011;20721;47.402;8.550;2023-07-16T04:22:01;1.74;;;1.74;;
2710;SDS011;20721;47.402;8.550;2023-07-16T04:24:02;1.76;;;1.76;;
2710;SDS011;20721;47.402;8.550;2023-07-16T04:26:02;1.62;;;1.62;;
2710;SDS011;20721;47.402;8.550;2023-07-16T04:29:01;1.78;;;1.76;;
2710;SDS011;20721;47.402;8.550;2023-07-16T04:31:01;1.96;;;1.96;;
2710;SDS011;20721;47.402;8.550;2023-07-16T04:33:01;1.82;;;1.82;;
2710;SDS011;20721;47.402;8.550;2023-07-16T04:35:01;1.49;;;1.49;;
2710;SDS011;20721;47.402;8.550;2023-07-16T04:37:01;1.90;;;1.90;;
2710;SDS011;20721;47.402;8.550;2023-07-16T04:39:04;1.56;;;1.56;;
2710;SDS011;20721;47.402;8.550;2023-07-16T04:41:01;1.89;;;1.89;;
2710;SDS011;20721;47.402;8.550;2023-07-16T04:43:01;1.61;;;1.61;;
2710;SDS011;20721;47.402;8.550;2023-07-16T04:45:01;2.05;;;2.05;;
2710;SDS011;20721;47.402;8.550;2023-07-16T04:47:01;1.93;;;1.93;;
2710;SDS011;20721;47.402;8.550;2023-07-16T04:50:01;1.78;;;1.78;;
2710;SDS011;20721;47.402;8.550;2023-07-16T04:52:01;1.37;;;1.37;;
2710;SDS011;20721;47.402;8.550;2023-07-16T04:54:01;1.57;;;1.57;;
2710;SDS011;20721;47.402;8.550;2023-07-16T04:56:01;1.48;;;1.48;;
2710;SDS011;20721;47.402;8.550;2023-07-16T04:58:03;1.65;;;1.65;;
2710;SDS011;20721;47.402;8.550;2023-07-16T05:00:02;1.63;;;1.63;;
2710;SDS011;20721;47.402;8.550;2023-07-16T05:02:02;1.72;;;1.72;;
2710;SDS011;20721;47.402;8.550;2023-07-16T05:04:01;1.53;;;1.53;;
2710;SDS011;20721;47.402;8.550;2023-07-16T05:06:01;1.61;;;1.61;;
2710;SDS011;20721;47.402;8.550;2023-07-16T05:08:01;1.84;;;1.80;;
2710;SDS011;20721;47.402;8.550;2023-07-16T05:10:01;1.95;;;1.92;;
2710;SDS011;20721;47.402;8.550;2023-07-16T05:12:01;1.64;;;1.63;;
2710;SDS011;20721;47.402;8.550;2023-07-16T05:14:01;1.48;;;1.48;;
2710;SDS011;20721;47.402;8.550;2023-07-16T05:16:01;2.21;;;2.21;;
2710;SDS011;20721;47.402;8.550;2023-07-16T05:18:01;1.65;;;1.65;;
2710;SDS011;20721;47.402;8.550;2023-07-16T05:20:01;1.90;;;1.90;;
2710;SDS011;20721;47.402;8.550;2023-07-16T05:22:01;1.42;;;1.42;;
2710;SDS011;20721;47.402;8.550;2023-07-16T05:24:01;1.45;;;1.45;;
2710;SDS011;20721;47.402;8.550;2023-07-16T05:26:01;1.66;;;1.66;;
2710;SDS011;20721;47.402;8.550;2023-07-16T05:28:01;2.30;;;2.30;;
2710;SDS011;20721;47.402;8.550;2023-07-16T05:30:01;2.22;;;2.22;;
2710;SDS011;20721;47.402;8.550;2023-07-16T05:32:01;1.88;;;1.88;;
2710;SDS011;20721;47.402;8.550;2023-07-16T05:34:01;1.76;;;1.76;;
2710;SDS011;20721;47.402;8.550;2023-07-16T05:36:01;1.85;;;1.85;;
2710;SDS011;20721;47.402;8.550;2023-07-16T05:38:01;2.03;;;2.03;;
2710;SDS011;20721;47.402;8.550;2023-07-16T05:40:01;2.26;;;2.26;;
2710;SDS011;20721;47.402;8.550;2023-07-16T05:42:01;1.97;;;1.97;;
2710;SDS011;20721;47.402;8.550;2023-07-16T05:44:01;2.21;;;2.21;;
2710;SDS011;20721;47.402;8.550;2023-07-16T05:46:01;2.15;;;2.15;;
2710;SDS011;20721;47.402;8.550;2023-07-16T05:48:01;3.07;;;3.07;;
2710;SDS011;20721;47.402;8.550;2023-07-16T05:50:01;2.06;;;2.06;;
2710;SDS011;20721;47.402;8.550;2023-07-16T05:52:01;1.97;;;1.97;;
2710;SDS011;20721;47.402;8.550;2023-07-16T05:54:01;2.42;;;2.42;;
2710;SDS011;20721;47.402;8.550;2023-07-16T05:56:02;1.96;;;1.96;;
2710;SDS011;20721;47.402;8.550;2023-07-16T05:58:01;2.42;;;2.42;;
2710;SDS011;20721;47.402;8.550;2023-07-16T06:00:01;2.41;;;2.41;;
2710;SDS011;20721;47.402;8.550;2023-07-16T06:02:01;1.94;;;1.94;;
2710;SDS011;20721;47.402;8.550;2023-07-16T06:04:01;1.89;;;1.89;;
2710;SDS011;20721;47.402;8.550;2023-07-16T06:07:03;2.01;;;2.01;;
2710;SDS011;20721;47.402;8.550;2023-07-16T06:09:01;2.19;;;2.19;;
2710;SDS011;20721;47.402;8.550;2023-07-16T06:12:01;1.68;;;1.68;;
2710;SDS011;20721;47.402;8.550;2023-07-16T06:14:03;2.26;;;2.26;;
2710;SDS011;20721;47.402;8.550;2023-07-16T06:16:01;1.88;;;1.88;;
2710;SDS011;20721;47.402;8.550;2023-07-16T06:18:02;2.11;;;2.11;;
2710;SDS011;20721;47.402;8.550;2023-07-16T06:20:02;1.58;;;1.58;;
2710;SDS011;20721;47.402;8.550;2023-07-16T06:22:01;2.11;;;2.11;;
2710;SDS011;20721;47.402;8.550;2023-07-16T06:24:01;2.05;;;2.05;;
2710;SDS011;20721;47.402;8.550;2023-07-16T06:26:05;2.14;;;2.14;;
2710;SDS011;20721;47.402;8.550;2023-07-16T06:28:01;2.09;;;2.09;;
2710;SDS011;20721;47.402;8.550;2023-07-16T06:30:02;1.64;;;1.64;;
2710;SDS011;20721;47.402;8.550;2023-07-16T06:32:05;1.85;;;1.85;;
2710;SDS011;20721;47.402;8.550;2023-07-16T06:34:01;2.12;;;2.12;;
2710;SDS011;20721;47.402;8.550;2023-07-16T06:36:01;2.02;;;2.02;;
2710;SDS011;20721;47.402;8.550;2023-07-16T06:38:01;1.90;;;1.90;;
2710;SDS011;20721;47.402;8.550;2023-07-16T06:40:01;1.92;;;1.92;;
2710;SDS011;20721;47.402;8.550;2023-07-16T06:42:01;1.70;;;1.70;;
2710;SDS011;20721;47.402;8.550;2023-07-16T06:44:01;2.15;;;2.15;;
2710;SDS011;20721;47.402;8.550;2023-07-16T06:46:01;1.85;;;1.85;;
2710;SDS011;20721;47.402;8.550;2023-07-16T06:48:02;2.18;;;2.18;;
2710;SDS011;20721;47.402;8.550;2023-07-16T06:50:02;1.78;;;1.78;;
2710;SDS011;20721;47.402;8.550;2023-07-16T06:52:01;1.98;;;1.98;;
2710;SDS011;20721;47.402;8.550;2023-07-16T06:55:01;2.10;;;2.10;;
2710;SDS011;20721;47.402;8.550;2023-07-16T06:57:01;1.70;;;1.70;;
2710;SDS011;20721;47.402;8.550;2023-07-16T06:59:01;1.89;;;1.89;;
2710;SDS011;20721;47.402;8.550;2023-07-16T07:01:01;1.68;;;1.68;;
2710;SDS011;20721;47.402;8.550;2023-07-16T07:03:01;1.75;;;1.75;;
2710;SDS011;20721;47.402;8.550;2023-07-16T07:05:02;1.80;;;1.80;;
2710;SDS011;20721;47.402;8.550;2023-07-16T07:07:01;2.18;;;2.18;;
2710;SDS011;20721;47.402;8.550;2023-07-16T07:09:02;1.38;;;1.38;;
2710;SDS011;20721;47.402;8.550;2023-07-16T07:11:01;2.01;;;2.01;;
2710;SDS011;20721;47.402;8.550;2023-07-16T07:13:01;1.43;;;1.43;;
2710;SDS011;20721;47.402;8.550;2023-07-16T07:15:01;1.79;;;1.79;;
2710;SDS011;20721;47.402;8.550;2023-07-16T07:17:02;1.70;;;1.70;;
2710;SDS011;20721;47.402;8.550;2023-07-16T07:19:01;2.07;;;2.07;;
2710;SDS011;20721;47.402;8.550;2023-07-16T07:21:01;1.76;;;1.76;;
2710;SDS011;20721;47.402;8.550;2023-07-16T07:23:02;2.00;;;2.00;;
2710;SDS011;20721;47.402;8.550;2023-07-16T07:25:01;2.07;;;2.07;;
2710;SDS011;20721;47.402;8.550;2023-07-16T07:27:02;1.58;;;1.58;;
2710;SDS011;20721;47.402;8.550;2023-07-16T07:29:01;2.00;;;2.00;;
2710;SDS011;20721;47.402;8.550;2023-07-16T07:31:01;1.57;;;1.57;;
2710;SDS011;20721;47.402;8.550;2023-07-16T07:33:01;2.03;;;2.03;;
2710;SDS011;20721;47.402;8.550;2023-07-16T07:35:01;1.57;;;1.57;;
2710;SDS011;20721;47.402;8.550;2023-07-16T07:37:01;1.55;;;1.55;;
2710;SDS011;20721;47.402;8.550;2023-07-16T07:39:01;1.65;;;1.65;;
2710;SDS011;20721;47.402;8.550;2023-07-16T07:43:01;1.77;;;1.77;;
2710;SDS011;20721;47.402;8.550;2023-07-16T07:45:02;1.97;;;1.97;;
2710;SDS011;20721;47.402;8.550;2023-07-16T07:47:02;2.07;;;2.07;;
2710;SDS011;20721;47.402;8.550;2023-07-16T07:49:01;1.60;;;1.60;;
2710;SDS011;20721;47.402;8.550;2023-07-16T07:51:04;1.72;;;1.72;;
2710;SDS011;20721;47.402;8.550;2023-07-16T07:53:01;1.99;;;1.99;;
2710;SDS011;20721;47.402;8.550;2023-07-16T07:55:02;1.91;;;1.91;;
2710;SDS011;20721;47.402;8.550;2023-07-16T07:57:02;1.81;;;1.81;;
2710;SDS011;20721;47.402;8.550;2023-07-16T07:59:02;1.79;;;1.79;;
2710;SDS011;20721;47.402;8.550;2023-07-16T08:01:04;2.00;;;2.00;;
2710;SDS011;20721;47.402;8.550;2023-07-16T08:03:02;1.35;;;1.35;;
2710;SDS011;20721;47.402;8.550;2023-07-16T08:05:02;2.05;;;2.05;;
2710;SDS011;20721;47.402;8.550;2023-07-16T08:07:03;1.84;;;1.84;;
2710;SDS011;20721;47.402;8.550;2023-07-16T08:09:02;1.84;;;1.84;;
2710;SDS011;20721;47.402;8.550;2023-07-16T08:11:02;1.98;;;1.97;;
2710;SDS011;20721;47.402;8.550;2023-07-16T08:13:02;2.39;;;2.38;;
2710;SDS011;20721;47.402;8.550;2023-07-16T08:15:02;1.84;;;1.84;;
2710;SDS011;20721;47.402;8.550;2023-07-16T08:17:02;2.08;;;2.08;;
2710;SDS011;20721;47.402;8.550;2023-07-16T08:19:02;1.83;;;1.83;;
2710;SDS011;20721;47.402;8.550;2023-07-16T08:21:02;2.09;;;2.09;;
2710;SDS011;20721;47.402;8.550;2023-07-16T08:23:02;1.70;;;1.70;;
2710;SDS011;20721;47.402;8.550;2023-07-16T08:25:02;1.97;;;1.96;;
2710;SDS011;20721;47.402;8.550;2023-07-16T08:27:02;2.01;;;2.00;;
2710;SDS011;20721;47.402;8.550;2023-07-16T08:29:02;1.60;;;1.59;;
2710;SDS011;20721;47.402;8.550;2023-07-16T08:31:02;2.07;;;2.07;;
2710;SDS011;20721;47.402;8.550;2023-07-16T08:33:02;1.96;;;1.95;;
2710;SDS011;20721;47.402;8.550;2023-07-16T08:35:02;2.19;;;2.18;;
2710;SDS011;20721;47.402;8.550;2023-07-16T08:37:02;1.81;;;1.80;;
2710;SDS011;20721;47.402;8.550;2023-07-16T08:39:02;1.97;;;1.97;;
2710;SDS011;20721;47.402;8.550;2023-07-16T08:41:02;2.03;;;2.03;;
2710;SDS011;20721;47.402;8.550;2023-07-16T08:43:02;2.25;;;2.25;;
2710;SDS011;20721;47.402;8.550;2023-07-16T08:45:02;1.58;;;1.58;;
2710;SDS011;20721;47.402;8.550;2023-07-16T08:47:02;2.05;;;2.05;;
2710;SDS011;20721;47.402;8.550;2023-07-16T08:49:03;1.89;;;1.89;;
2710;SDS011;20721;47.402;8.550;2023-07-16T08:51:02;2.13;;;2.13;;
2710;SDS011;20721;47.402;8.550;2023-07-16T08:53:04;1.98;;;1.98;;
2710;SDS011;20721;47.402;8.550;2023-07-16T08:55:02;1.96;;;1.96;;
2710;SDS011;20721;47.402;8.550;2023-07-16T08:57:02;1.53;;;1.53;;
2710;SDS011;20721;47.402;8.550;2023-07-16T08:59:04;1.85;;;1.85;;
2710;SDS011;20721;47.402;8.550;2023-07-16T09:01:03;1.83;;;1.83;;
2710;SDS011;20721;47.402;8.550;2023-07-16T09:03:02;2.41;;;2.41;;
2710;SDS011;20721;47.402;8.550;2023-07-16T09:05:02;1.59;;;1.59;;
2710;SDS011;20721;47.402;8.550;2023-07-16T09:07:02;1.99;;;1.99;;
2710;SDS011;20721;47.402;8.550;2023-07-16T09:09:02;1.99;;;1.99;;
2710;SDS011;20721;47.402;8.550;2023-07-16T09:11:03;2.37;;;2.37;;
2710;SDS011;20721;47.402;8.550;2023-07-16T09:13:02;2.04;;;2.03;;
2710;SDS011;20721;47.402;8.550;2023-07-16T09:15:02;2.39;;;2.38;;
2710;SDS011;20721;47.402;8.550;2023-07-16T09:17:02;2.02;;;2.02;;
2710;SDS011;20721;47.402;8.550;2023-07-16T09:19:06;2.22;;;2.22;;
2710;SDS011;20721;47.402;8.550;2023-07-16T09:22:02;2.17;;;2.17;;
2710;SDS011;20721;47.402;8.550;2023-07-16T09:24:06;1.88;;;1.88;;
2710;SDS011;20721;47.402;8.550;2023-07-16T09:26:03;2.04;;;2.04;;
2710;SDS011;20721;47.402;8.550;2023-07-16T09:28:02;1.83;;;1.83;;
2710;SDS011;20721;47.402;8.550;2023-07-16T09:30:03;1.54;;;1.54;;
2710;SDS011;20721;47.402;8.550;2023-07-16T09:32:03;2.20;;;2.20;;
2710;SDS011;20721;47.402;8.550;2023-07-16T09:34:08;2.61;;;2.61;;
2710;SDS011;20721;47.402;8.550;2023-07-16T09:36:03;3.18;;;3.18;;
2710;SDS011;20721;47.402;8.550;2023-07-16T09:38:02;2.90;;;2.90;;
2710;SDS011;20721;47.402;8.550;2023-07-16T09:40:03;2.41;;;2.41;;
2710;SDS011;20721;47.402;8.550;2023-07-16T09:42:02;2.62;;;2.62;;
2710;SDS011;20721;47.402;8.550;2023-07-16T09:44:02;2.29;;;2.29;;
2710;SDS011;20721;47.402;8.550;2023-07-16T09:46:02;2.15;;;2.15;;
2710;SDS011;20721;47.402;8.550;2023-07-16T09:48:02;2.26;;;2.26;;
2710;SDS011;20721;47.402;8.550;2023-07-16T09:52:06;2.52;;;2.52;;
2710;SDS011;20721;47.402;8.550;2023-07-16T09:54:03;4.15;;;4.15;;
2710;SDS011;20721;47.402;8.550;2023-07-16T09:56:02;3.19;;;3.19;;
2710;SDS011;20721;47.402;8.550;2023-07-16T09:58:06;2.72;;;2.72;;
2710;SDS011;20721;47.402;8.550;2023-07-16T10:00:05;2.54;;;2.54;;
2710;SDS011;20721;47.402;8.550;2023-07-16T10:02:03;2.65;;;2.65;;
2710;SDS011;20721;47.402;8.550;2023-07-16T10:04:18;1.89;;;1.89;;
2710;SDS011;20721;47.402;8.550;2023-07-16T10:06:05;2.29;;;2.29;;
2710;SDS011;20721;47.402;8.550;2023-07-16T10:08:04;2.06;;;2.06;;
2710;SDS011;20721;47.402;8.550;2023-07-16T10:10:07;1.99;;;1.99;;
2710;SDS011;20721;47.402;8.550;2023-07-16T10:12:18;2.03;;;2.02;;
2710;SDS011;20721;47.402;8.550;2023-07-16T10:14:03;2.08;;;2.07;;
2710;SDS011;20721;47.402;8.550;2023-07-16T10:16:04;2.55;;;2.54;;
2710;SDS011;20721;47.402;8.550;2023-07-16T10:19:04;2.10;;;2.10;;
2710;SDS011;20721;47.402;8.550;2023-07-16T10:21:07;1.99;;;1.99;;
2710;SDS011;20721;47.402;8.550;2023-07-16T10:24:16;2.09;;;2.09;;
2710;SDS011;20721;47.402;8.550;2023-07-16T10:26:10;2.39;;;2.38;;
2710;SDS011;20721;47.402;8.550;2023-07-16T10:28:03;2.48;;;2.48;;
2710;SDS011;20721;47.402;8.550;2023-07-16T10:31:02;2.22;;;2.21;;
2710;SDS011;20721;47.402;8.550;2023-07-16T10:33:03;1.91;;;1.90;;
2710;SDS011;20721;47.402;8.550;2023-07-16T10:35:03;1.97;;;1.94;;
2710;SDS011;20721;47.402;8.550;2023-07-16T10:37:02;2.26;;;2.23;;
2710;SDS011;20721;47.402;8.550;2023-07-16T10:39:03;2.13;;;2.11;;
2710;SDS011;20721;47.402;8.550;2023-07-16T10:41:02;2.31;;;2.31;;
2710;SDS011;20721;47.402;8.550;2023-07-16T10:43:02;2.05;;;2.05;;
2710;SDS011;20721;47.402;8.550;2023-07-16T10:45:04;2.59;;;2.59;;
2710;SDS011;20721;47.402;8.550;2023-07-16T10:47:05;2.10;;;2.10;;
2710;SDS011;20721;47.402;8.550;2023-07-16T10:49:02;2.18;;;2.18;;
2710;SDS011;20721;47.402;8.550;2023-07-16T10:51:04;2.37;;;2.37;;
2710;SDS011;20721;47.402;8.550;2023-07-16T10:53:03;2.23;;;2.23;;
2710;SDS011;20721;47.402;8.550;2023-07-16T10:55:05;2.17;;;2.17;;
2710;SDS011;20721;47.402;8.550;2023-07-16T10:57:03;1.98;;;1.98;;
2710;SDS011;20721;47.402;8.550;2023-07-16T10:59:02;2.08;;;2.07;;
2710;SDS011;20721;47.402;8.550;2023-07-16T11:01:03;2.29;;;2.29;;
2710;SDS011;20721;47.402;8.550;2023-07-16T11:03:02;2.60;;;2.59;;
2710;SDS011;20721;47.402;8.550;2023-07-16T11:05:03;2.68;;;2.66;;
2710;SDS011;20721;47.402;8.550;2023-07-16T11:07:04;2.34;;;2.32;;
2710;SDS011;20721;47.402;8.550;2023-07-16T11:10:03;2.45;;;2.45;;
2710;SDS011;20721;47.402;8.550;2023-07-16T11:12:06;2.12;;;2.12;;
2710;SDS011;20721;47.402;8.550;2023-07-16T11:14:06;2.06;;;2.06;;
2710;SDS011;20721;47.402;8.550;2023-07-16T11:16:09;2.06;;;2.06;;
2710;SDS011;20721;47.402;8.550;2023-07-16T11:18:02;2.22;;;2.22;;
2710;SDS011;20721;47.402;8.550;2023-07-16T11:20:03;2.03;;;2.03;;
2710;SDS011;20721;47.402;8.550;2023-07-16T11:22:03;2.07;;;2.07;;
2710;SDS011;20721;47.402;8.550;2023-07-16T11:24:17;2.63;;;2.63;;
2710;SDS011;20721;47.402;8.550;2023-07-16T11:26:02;2.70;;;2.70;;
2710;SDS011;20721;47.402;8.550;2023-07-16T11:28:04;2.44;;;2.44;;
2710;SDS011;20721;47.402;8.550;2023-07-16T11:30:02;2.12;;;2.12;;
2710;SDS011;20721;47.402;8.550;2023-07-16T11:32:02;2.52;;;2.52;;
2710;SDS011;20721;47.402;8.550;2023-07-16T11:35:05;2.13;;;2.13;;
2710;SDS011;20721;47.402;8.550;2023-07-16T11:37:10;2.29;;;2.29;;
2710;SDS011;20721;47.402;8.550;2023-07-16T11:39:02;2.19;;;2.19;;
2710;SDS011;20721;47.402;8.550;2023-07-16T11:41:02;3.15;;;3.15;;
2710;SDS011;20721;47.402;8.550;2023-07-16T11:43:10;2.98;;;2.98;;
2710;SDS011;20721;47.402;8.550;2023-07-16T11:45:03;3.26;;;3.26;;
2710;SDS011;20721;47.402;8.550;2023-07-16T11:47:03;3.01;;;3.01;;
2710;SDS011;20721;47.402;8.550;2023-07-16T11:49:02;2.82;;;2.82;;
2710;SDS011;20721;47.402;8.550;2023-07-16T11:51:02;2.41;;;2.41;;
2710;SDS011;20721;47.402;8.550;2023-07-16T11:56:02;2.91;;;2.91;;
2710;SDS011;20721;47.402;8.550;2023-07-16T11:59:02;2.59;;;2.59;;
2710;SDS011;20721;47.402;8.550;2023-07-16T12:01:03;2.59;;;2.59;;
2710;SDS011;20721;47.402;8.550;2023-07-16T12:03:03;2.43;;;2.43;;
2710;SDS011;20721;47.402;8.550;2023-07-16T12:05:02;2.53;;;2.53;;
2710;SDS011;20721;47.402;8.550;2023-07-16T12:07:02;2.68;;;2.68;;
2710;SDS011;20721;47.402;8.550;2023-07-16T12:09:02;2.67;;;2.67;;
2710;SDS011;20721;47.402;8.550;2023-07-16T12:11:03;2.64;;;2.64;;
2710;SDS011;20721;47.402;8.550;2023-07-16T12:13:02;2.66;;;2.66;;
2710;SDS011;20721;47.402;8.550;2023-07-16T12:15:02;2.64;;;2.64;;
2710;SDS011;20721;47.402;8.550;2023-07-16T12:17:02;2.68;;;2.68;;
2710;SDS011;20721;47.402;8.550;2023-07-16T12:20:02;2.61;;;2.61;;
2710;SDS011;20721;47.402;8.550;2023-07-16T12:22:06;2.57;;;2.57;;
2710;SDS011;20721;47.402;8.550;2023-07-16T12:24:02;2.48;;;2.48;;
2710;SDS011;20721;47.402;8.550;2023-07-16T12:26:02;3.15;;;3.15;;
2710;SDS011;20721;47.402;8.550;2023-07-16T12:28:07;2.77;;;2.77;;
2710;SDS011;20721;47.402;8.550;2023-07-16T12:30:02;2.91;;;2.91;;
2710;SDS011;20721;47.402;8.550;2023-07-16T12:32:02;2.30;;;2.30;;
2710;SDS011;20721;47.402;8.550;2023-07-16T12:34:04;2.22;;;2.22;;
2710;SDS011;20721;47.402;8.550;2023-07-16T12:36:04;2.44;;;2.44;;
2710;SDS011;20721;47.402;8.550;2023-07-16T12:38:02;2.08;;;2.08;;
2710;SDS011;20721;47.402;8.550;2023-07-16T12:40:02;1.99;;;1.99;;
2710;SDS011;20721;47.402;8.550;2023-07-16T12:43:02;2.34;;;2.34;;
2710;SDS011;20721;47.402;8.550;2023-07-16T12:45:02;2.22;;;2.22;;
2710;SDS011;20721;47.402;8.550;2023-07-16T12:47:02;2.47;;;2.47;;
2710;SDS011;20721;47.402;8.550;2023-07-16T12:49:02;2.79;;;2.79;;
2710;SDS011;20721;47.402;8.550;2023-07-16T12:52:03;2.28;;;2.28;;
2710;SDS011;20721;47.402;8.550;2023-07-16T12:54:02;2.54;;;2.54;;
2710;SDS011;20721;47.402;8.550;2023-07-16T12:56:02;2.35;;;2.35;;